Accueil
METAR-TAF:

METAR-TAF

Aéroports :

Aéroport de Béziers-Cap d'Agde

Béziers, France

latitude: 43-19N, longitude: 003-21E, altitude: 17 m

Observation

Le bulletin a été fait il y a 36 minutes, à 08:30 UTC
Vent 6 kt de ouest
Température 9°C
Humidité 61%
Pression 1018 hPa
Visibilité 10 km ou plus

METAR: LFMU 170830Z AUTO 27006KT 9999 ///TCU 09/02 Q1018 TEMPO SHRA BECMG 36010KT

Heure: 11:06 (09:06 UTC)

Prévision

Le bulletin a été fait il y a 1 heure et 6 minutes, à 08:00 UTC
Prévision valable du 17 à 09 UTC au 18 à 09 UTC
Vent 12 kt de nord-ouest
Visibilité 10 km ou plus
pas de nuages en-dessous de 1500 mètres et pas de cumulonimbus.
Temporairement
du 17 à 13 UTC au 17 à 18 UTC
Vent 20 kt de nord-ouest avec des rafales jusqu'à 30 kt

TAF: LFMU 170800Z 1709/1809 32012KT CAVOK TEMPO 1713/1718 32020G30KT

Observations et prévisions météorologiques de plus de 4000 aéroports (messages METAR et TAF).

Les stations disponibles sont représentées par des disques jaunes et rouges sur la carte.

Passer la souris dessus pour voir le nom de la station.

Cliquer dessus pour voir les observations et prévisions météorologiques.

Pour changer de carte: cliquez sur les boutons verts avec une croix noire pour zoomer, sur le bouton vert avec un tiret pour effectuer un zoom arrière, ou sur les flèches vertes pour les cartes adjacentes.


METAR-TAF: